Time;durP1;ratioP1;P1;durP2;ratioP2;P2;SDS_P1;SDS_P2;PMS_P1;PMS_P2;Temp;Humidity;BMP_temperature;BMP_pressure;BME280_temperature;BME280_humidity;BME280_pressure;Samples;Min_cycle;Max_cycle;Signal;HPM_P1;HPM_P2
2021/10/10 00:00:19;;;;;;;13.27;6.72;;;;;;;15.77;44.60;102509.88;5056059;28;20029;-59
2021/10/10 00:02:44;;;;;;;13.57;6.40;;;;;;;15.71;43.42;102503.13;5055318;28;20025;-59
2021/10/10 00:05:09;;;;;;;11.68;6.40;;;;;;;15.64;43.89;102508.13;5055659;28;20793;-59
2021/10/10 00:07:35;;;;;;;17.50;8.98;;;;;;;15.57;44.90;102506.91;5055884;28;20021;-59
2021/10/10 00:10:00;;;;;;;15.27;7.60;;;;;;;15.58;44.48;102519.41;5021113;28;20155;-59
2021/10/10 00:12:25;;;;;;;14.43;7.95;;;;;;;15.56;44.32;102520.50;5038131;28;20090;-59
2021/10/10 00:14:51;;;;;;;10.95;6.80;;;;;;;15.54;43.47;102515.25;5038085;28;20466;-59
2021/10/10 00:17:16;;;;;;;13.48;7.22;;;;;;;15.50;43.48;102516.44;5055736;28;20170;-59
2021/10/10 00:19:42;;;;;;;13.35;6.53;;;;;;;15.47;43.53;102505.88;5055525;28;20033;-59
2021/10/10 00:22:07;;;;;;;13.70;7.28;;;;;;;15.45;44.48;102513.22;5055707;28;20615;-59
2021/10/10 00:24:33;;;;;;;11.63;7.15;;;;;;;15.39;44.05;102511.00;5055983;28;20029;-59
2021/10/10 00:26:59;;;;;;;10.82;6.90;;;;;;;15.40;45.02;102515.44;5055676;28;20363;-59
2021/10/10 00:29:24;;;;;;;57.38;12.65;;;;;;;15.38;44.20;102517.34;5055491;28;20036;-59
2021/10/10 00:31:50;;;;;;;95.28;12.80;;;;;;;15.36;43.96;102519.31;5055512;28;20119;-59
2021/10/10 00:34:15;;;;;;;67.72;11.50;;;;;;;15.35;45.47;102517.63;5055434;28;20035;-59
2021/10/10 00:36:40;;;;;;;62.38;12.50;;;;;;;15.34;45.14;102517.72;5055281;28;20107;-59
2021/10/10 00:39:06;;;;;;;32.60;11.10;;;;;;;15.34;45.15;102515.03;5036947;28;20109;-59
2021/10/10 00:41:31;;;;;;;27.80;9.57;;;;;;;15.29;44.11;102512.69;5055702;28;20033;-59
2021/10/10 00:43:56;;;;;;;16.50;8.68;;;;;;;15.29;44.85;102517.22;5037367;28;20039;-59
2021/10/10 00:46:22;;;;;;;21.25;9.15;;;;;;;15.27;44.19;102514.63;5055079;28;20132;-59
2021/10/10 00:48:47;;;;;;;20.65;9.80;;;;;;;15.28;44.16;102512.78;5054921;28;20013;-59
2021/10/10 00:51:13;;;;;;;22.77;10.18;;;;;;;15.27;44.28;102513.78;5037017;28;20147;-59
2021/10/10 00:53:38;;;;;;;28.85;10.18;;;;;;;15.26;44.85;102517.47;5054969;28;20075;-59
2021/10/10 00:56:05;;;;;;;25.48;9.07;;;;;;;15.27;44.57;102514.63;5020593;28;20029;-58
2021/10/10 00:58:38;;;;;;;38.60;11.50;;;;;;;15.27;45.44;102511.94;5037397;28;20124;-59
2021/10/10 01:01:06;;;;;;;36.20;12.20;;;;;;;15.28;46.00;102516.38;5041701;28;20459;-59
2021/10/10 01:03:32;;;;;;;42.65;12.13;;;;;;;15.30;44.37;102519.78;5057507;28;20032;-59
2021/10/10 01:05:57;;;;;;;36.22;13.15;;;;;;;15.29;44.73;102504.59;5054739;28;20389;-59
2021/10/10 01:08:22;;;;;;;34.00;10.95;;;;;;;15.34;45.89;102513.19;5054891;28;20100;-59
2021/10/10 01:10:49;;;;;;;41.28;12.43;;;;;;;15.36;45.96;102507.66;5054815;28;20032;-59
2021/10/10 01:13:15;;;;;;;60.58;11.68;;;;;;;15.36;45.85;102513.06;5055059;28;20496;-59
2021/10/10 01:15:41;;;;;;;56.38;11.10;;;;;;;15.37;46.22;102512.09;5054564;28;20219;-59
2021/10/10 01:18:06;;;;;;;49.53;10.93;;;;;;;15.34;45.32;102510.50;5036532;28;20111;-59
2021/10/10 01:20:47;;;;;;;51.60;13.07;;;;;;;15.36;45.05;102502.25;5055310;28;20032;-59
2021/10/10 01:23:14;;;;;;;41.47;11.88;;;;;;;15.34;45.08;102515.91;5054879;28;20053;-59
2021/10/10 01:25:40;;;;;;;81.22;12.63;;;;;;;15.32;44.82;102509.75;5054303;28;20471;-59
2021/10/10 01:28:06;;;;;;;23.10;12.02;;;;;;;15.32;45.83;102509.75;5054238;28;20025;-59
2021/10/10 01:30:32;;;;;;;28.83;9.25;;;;;;;15.34;46.44;102509.63;5054488;28;20354;-59
2021/10/10 01:32:57;;;;;;;41.35;8.75;;;;;;;15.35;46.71;102506.81;5054063;28;20017;-59
2021/10/10 01:35:23;;;;;;;40.05;9.20;;;;;;;15.35;44.96;102509.53;5054232;28;20029;-59
2021/10/10 01:37:48;;;;;;;30.52;8.82;;;;;;;15.34;46.52;102507.78;5019952;28;20048;-59
2021/10/10 01:40:14;;;;;;;18.58;8.32;;;;;;;15.31;46.09;102494.53;5054179;28;20339;-59
2021/10/10 01:42:39;;;;;;;30.02;9.23;;;;;;;15.32;46.31;102490.88;5053685;28;20024;-59
2021/10/10 01:45:14;;;;;;;27.60;7.78;;;;;;;15.35;45.47;102500.56;5054076;28;20033;-59
2021/10/10 01:47:39;;;;;;;23.52;8.88;;;;;;;15.33;45.34;102492.56;5035998;28;20112;-59
2021/10/10 01:50:05;;;;;;;24.33;7.97;;;;;;;15.34;45.66;102488.91;5054471;28;20059;-59
2021/10/10 01:52:30;;;;;;;35.80;9.15;;;;;;;15.34;45.50;102493.44;5053617;28;20060;-59
2021/10/10 01:54:55;;;;;;;25.08;9.32;;;;;;;15.33;45.35;102491.69;5036207;28;20036;-59
2021/10/10 01:57:21;;;;;;;28.17;9.38;;;;;;;15.30;46.90;102490.09;5035998;28;20476;-59
2021/10/10 01:59:46;;;;;;;28.73;7.85;;;;;;;15.29;45.86;102485.69;5053898;28;20366;-59
2021/10/10 02:02:12;;;;;;;25.65;9.15;;;;;;;15.28;45.68;102483.97;5053775;28;20473;-59
2021/10/10 02:04:37;;;;;;;40.28;8.65;;;;;;;15.27;46.22;102481.41;5053666;28;20791;-59
2021/10/10 02:07:02;;;;;;;60.42;8.77;;;;;;;15.22;46.50;102473.63;5035845;28;20445;-59
2021/10/10 02:09:28;;;;;;;23.40;7.55;;;;;;;15.21;46.03;102468.38;5053190;28;20032;-59
2021/10/10 02:11:53;;;;;;;24.10;9.07;;;;;;;15.26;45.95;102485.06;5035959;28;20021;-59
2021/10/10 02:14:18;;;;;;;27.98;7.60;;;;;;;15.26;45.54;102479.66;5053562;28;20120;-59
2021/10/10 02:16:44;;;;;;;21.38;7.53;;;;;;;15.25;46.59;102478.81;5053104;28;20070;-59
2021/10/10 02:19:09;;;;;;;38.63;8.43;;;;;;;15.25;46.05;102476.09;5053347;28;20032;-59
2021/10/10 02:21:34;;;;;;;25.98;8.20;;;;;;;15.23;45.76;102469.97;5053555;28;20025;-59
2021/10/10 02:24:00;;;;;;;23.77;8.15;;;;;;;15.18;46.19;102472.16;5053109;28;20025;-59
2021/10/10 02:26:25;;;;;;;18.95;7.55;;;;;;;15.16;46.25;102474.97;5053151;28;20548;-59
2021/10/10 02:28:50;;;;;;;22.15;8.40;;;;;;;15.14;45.48;102478.78;5053312;28;20374;-59
2021/10/10 02:31:17;;;;;;;19.35;8.10;;;;;;;15.13;45.85;102482.47;5053062;28;20049;-59
2021/10/10 02:33:42;;;;;;;20.15;7.60;;;;;;;15.09;45.67;102478.28;5052960;28;20159;-59
2021/10/10 02:36:07;;;;;;;31.70;8.18;;;;;;;15.06;46.40;102475.81;5053662;28;20059;-59
2021/10/10 02:38:33;;;;;;;20.00;7.47;;;;;;;15.04;45.83;102472.38;5053434;28;20017;-59
2021/10/10 02:40:58;;;;;;;32.67;8.23;;;;;;;14.99;46.04;102469.16;5053848;28;20468;-59
2021/10/10 02:43:23;;;;;;;27.67;7.97;;;;;;;14.98;45.90;102470.13;5053147;28;20044;-59
2021/10/10 02:45:49;;;;;;;40.22;7.80;;;;;;;14.94;45.75;102463.25;5053184;28;20045;-59
2021/10/10 02:48:15;;;;;;;21.60;8.43;;;;;;;14.91;45.79;102471.56;5053011;28;20032;-59
2021/10/10 02:50:40;;;;;;;34.75;7.95;;;;;;;14.90;45.94;102470.72;5053006;28;20149;-59
2021/10/10 02:53:06;;;;;;;43.67;8.18;;;;;;;14.86;45.79;102471.06;5052601;28;20053;-60
2021/10/10 02:55:31;;;;;;;47.55;8.90;;;;;;;14.84;45.77;102465.78;5052852;28;20060;-59
2021/10/10 02:57:57;;;;;;;45.88;8.70;;;;;;;14.83;46.15;102460.50;5052857;28;20025;-59
2021/10/10 03:00:22;;;;;;;27.77;8.82;;;;;;;14.81;47.33;102463.31;5052903;28;20036;-59
2021/10/10 03:02:48;;;;;;;37.60;8.13;;;;;;;14.77;47.01;102461.00;5053002;28;20100;-59
2021/10/10 03:05:13;;;;;;;28.25;8.88;;;;;;;14.78;45.87;102457.28;5052979;28;20021;-59
2021/10/10 03:07:38;;;;;;;35.10;9.60;;;;;;;14.76;45.78;102451.16;5052615;28;20029;-59
2021/10/10 03:10:04;;;;;;;37.97;9.75;;;;;;;14.71;47.20;102450.66;5052432;28;20016;-59
2021/10/10 03:12:29;;;;;;;46.22;8.63;;;;;;;14.70;46.00;102449.78;5052902;28;20451;-60
2021/10/10 03:14:55;;;;;;;42.35;9.38;;;;;;;14.70;46.61;102451.63;5034954;28;20497;-59
2021/10/10 03:17:20;;;;;;;15.95;8.02;;;;;;;14.67;46.52;102454.56;5034589;28;20400;-59
2021/10/10 03:19:45;;;;;;;29.10;7.32;;;;;;;14.65;46.92;102443.03;5052636;28;20504;-59
2021/10/10 03:22:11;;;;;;;37.17;8.43;;;;;;;14.63;45.82;102445.00;5037791;28;20029;-59
2021/10/10 03:24:36;;;;;;;22.83;7.30;;;;;;;14.59;45.74;102452.44;5056534;28;20025;-59
2021/10/10 03:27:01;;;;;;;23.20;7.78;;;;;;;14.55;46.69;102441.00;5056760;28;20049;-59
2021/10/10 03:29:27;;;;;;;12.43;7.18;;;;;;;14.53;46.28;102444.81;5056775;28;20028;-59
2021/10/10 03:31:52;;;;;;;9.25;6.50;;;;;;;14.49;46.99;102446.88;5056448;28;20471;-59
2021/10/10 03:34:17;;;;;;;11.48;6.60;;;;;;;14.46;46.99;102444.41;5056642;28;20029;-59
2021/10/10 03:36:43;;;;;;;9.02;6.78;;;;;;;14.42;46.55;102444.75;5056222;28;20103;-59
2021/10/10 03:39:08;;;;;;;10.02;6.18;;;;;;;14.38;45.55;102436.03;5038491;28;20050;-59
2021/10/10 03:41:33;;;;;;;9.43;6.63;;;;;;;14.33;46.72;102443.59;5056990;28;20494;-59
2021/10/10 03:43:59;;;;;;;11.05;6.80;;;;;;;14.29;45.49;102442.06;5056196;28;20025;-59
2021/10/10 03:46:24;;;;;;;10.82;6.88;;;;;;;14.25;46.14;102437.88;5056258;28;20024;-59
2021/10/10 03:48:49;;;;;;;8.55;5.78;;;;;;;14.23;46.64;102450.63;5056416;28;20029;-59
2021/10/10 03:51:15;;;;;;;10.13;6.15;;;;;;;14.15;46.72;102442.25;5055761;28;20025;-59
2021/10/10 03:56:08;;;;;;;8.80;5.97;;;;;;;14.14;46.01;102447.72;5056231;28;20020;-59
2021/10/10 03:58:37;;;;;;;9.98;6.97;;;;;;;14.11;46.67;102448.81;5057425;28;20497;-59
2021/10/10 04:01:06;;;;;;;9.48;6.18;;;;;;;14.09;46.31;102448.06;5039989;28;20071;-59
2021/10/10 04:03:32;;;;;;;11.48;7.07;;;;;;;14.05;46.92;102435.78;5055741;28;20028;-59
2021/10/10 04:05:57;;;;;;;8.65;6.45;;;;;;;14.07;45.37;102439.22;5038272;28;20020;-59
2021/10/10 04:08:22;;;;;;;9.63;6.45;;;;;;;14.06;45.76;102431.25;5056034;28;20025;-59
2021/10/10 04:10:48;;;;;;;11.60;7.05;;;;;;;14.04;46.10;102434.09;5055954;28;20389;-59
2021/10/10 04:13:13;;;;;;;10.50;6.40;;;;;;;14.04;45.99;102441.31;5037745;28;20049;-59
2021/10/10 04:15:39;;;;;;;18.23;6.78;;;;;;;14.03;46.30;102443.13;5055368;28;20037;-59
2021/10/10 04:18:05;;;;;;;19.35;7.65;;;;;;;14.00;46.80;102437.97;5055433;28;20112;-57
2021/10/10 04:20:31;;;;;;;38.05;8.38;;;;;;;14.00;46.03;102443.34;5055380;28;20130;-59
2021/10/10 04:22:56;;;;;;;30.45;8.32;;;;;;;13.93;45.94;102442.09;5055431;28;20063;-59
2021/10/10 04:25:21;;;;;;;29.45;7.95;;;;;;;13.96;46.97;102447.22;5055374;28;20025;-59
2021/10/10 04:27:47;;;;;;;46.33;8.00;;;;;;;13.93;46.00;102448.31;5055467;28;20025;-59
2021/10/10 04:30:14;;;;;;;43.53;7.55;;;;;;;13.90;46.22;102455.78;5055691;28;20029;-59
2021/10/10 04:32:41;;;;;;;14.90;7.43;;;;;;;13.88;45.94;102458.56;5037417;28;20137;-59
2021/10/10 04:35:07;;;;;;;17.48;7.55;;;;;;;13.86;46.38;102451.56;5055544;28;20029;-59
2021/10/10 04:37:32;;;;;;;20.60;6.40;;;;;;;13.83;45.94;102455.34;5055101;28;20032;-59
2021/10/10 04:39:58;;;;;;;40.03;7.53;;;;;;;13.79;46.38;102450.31;5055281;28;20101;-59
2021/10/10 04:42:23;;;;;;;36.20;7.25;;;;;;;13.78;46.52;102451.25;5055414;28;20253;-57
2021/10/10 04:44:48;;;;;;;50.78;8.25;;;;;;;13.77;46.29;102457.59;5055264;28;20400;-57
2021/10/10 04:47:14;;;;;;;36.00;8.00;;;;;;;13.65;46.73;102442.34;5055313;28;20432;-59
2021/10/10 04:49:42;;;;;;;15.07;7.35;;;;;;;13.74;46.40;102460.50;5055962;28;20480;-59
2021/10/10 04:52:07;;;;;;;36.08;7.95;;;;;;;13.71;46.44;102449.97;5055673;28;20079;-59
2021/10/10 04:54:35;;;;;;;45.53;8.43;;;;;;;13.72;45.84;102459.78;5054709;28;20064;-59
2021/10/10 04:57:01;;;;;;;32.65;8.55;;;;;;;13.71;46.75;102453.53;5037472;28;20043;-59
2021/10/10 04:59:27;;;;;;;17.58;7.55;;;;;;;13.71;47.14;102452.66;5054457;28;20029;-59
2021/10/10 05:01:52;;;;;;;61.90;8.45;;;;;;;13.69;46.08;102454.59;5054671;28;20473;-59
2021/10/10 05:04:18;;;;;;;48.80;9.00;;;;;;;13.67;46.42;102449.34;5054737;28;20029;-59
2021/10/10 05:06:43;;;;;;;62.70;8.52;;;;;;;13.62;46.73;102439.88;5054781;28;20102;-59
2021/10/10 05:09:09;;;;;;;46.13;8.15;;;;;;;13.63;46.85;102444.25;5055314;28;20037;-58
2021/10/10 05:11:34;;;;;;;27.98;7.88;;;;;;;13.58;46.95;102447.28;5054509;28;20044;-59
2021/10/10 05:13:59;;;;;;;11.45;6.72;;;;;;;13.54;46.72;102445.78;5054577;28;20556;-59
2021/10/10 05:16:25;;;;;;;29.38;6.82;;;;;;;13.54;46.92;102448.47;5054411;28;20043;-59
2021/10/10 05:18:50;;;;;;;21.95;7.80;;;;;;;13.54;46.81;102450.31;5036682;28;20041;-59
2021/10/10 05:21:16;;;;;;;23.38;6.88;;;;;;;13.52;47.03;102452.25;5054003;28;20388;-59
2021/10/10 05:23:41;;;;;;;13.43;6.57;;;;;;;13.50;46.89;102456.88;5054254;28;20033;-59
2021/10/10 05:26:07;;;;;;;10.45;6.53;;;;;;;13.48;46.66;102461.53;5054603;28;20029;-59
2021/10/10 05:28:32;;;;;;;16.08;7.07;;;;;;;13.41;46.60;102444.94;5054241;28;20021;-59
2021/10/10 05:30:58;;;;;;;13.30;7.55;;;;;;;13.43;46.93;102454.63;5054153;28;20482;-59
2021/10/10 05:33:23;;;;;;;11.15;6.78;;;;;;;13.39;46.65;102447.75;5054117;28;20111;-59
2021/10/10 05:35:49;;;;;;;9.57;6.78;;;;;;;13.37;46.32;102448.81;5054211;28;20025;-59
2021/10/10 05:38:14;;;;;;;13.38;7.07;;;;;;;13.34;46.68;102449.88;5054428;28;20044;-59
2021/10/10 05:40:39;;;;;;;15.57;7.30;;;;;;;13.32;46.70;102451.81;5055043;28;20090;-59
2021/10/10 05:43:05;;;;;;;9.73;6.55;;;;;;;13.30;46.69;102459.13;5019935;28;20060;-58
2021/10/10 05:45:31;;;;;;;13.57;6.55;;;;;;;13.28;46.66;102466.47;5053821;28;20029;-59
2021/10/10 05:47:56;;;;;;;11.88;6.55;;;;;;;13.25;46.09;102469.38;5053713;28;20039;-59
2021/10/10 05:50:21;;;;;;;15.82;7.55;;;;;;;13.23;46.67;102473.97;5053864;28;20025;-59
2021/10/10 05:52:47;;;;;;;11.88;6.90;;;;;;;13.14;46.57;102457.63;5035607;28;20088;-59
2021/10/10 05:55:14;;;;;;;11.10;6.50;;;;;;;13.13;45.58;102456.75;5053857;28;20025;-59
2021/10/10 05:57:45;;;;;;;13.43;5.95;;;;;;;13.18;46.40;102470.75;5036176;28;20025;-59
2021/10/10 06:00:12;;;;;;;9.38;6.78;;;;;;;13.17;45.63;102474.44;5055650;28;20188;-59
2021/10/10 06:02:38;;;;;;;16.15;7.65;;;;;;;13.17;45.83;102469.03;5055522;28;20170;-59
2021/10/10 06:05:07;;;;;;;13.90;7.82;;;;;;;13.16;46.08;102470.00;5055852;28;20063;-59
2021/10/10 06:07:33;;;;;;;14.00;7.03;;;;;;;13.15;46.58;102462.88;5054905;28;20025;-57
2021/10/10 06:09:58;;;;;;;12.48;6.97;;;;;;;13.11;46.16;102461.38;5053993;28;20033;-58
2021/10/10 06:12:24;;;;;;;15.77;7.07;;;;;;;13.15;46.15;102470.94;5035382;28;20461;-57
2021/10/10 06:14:51;;;;;;;12.48;7.20;;;;;;;13.18;45.50;102472.56;5035800;28;20035;-57
2021/10/10 06:17:19;;;;;;;12.80;6.75;;;;;;;13.21;45.76;102470.53;5035918;28;20029;-57
2021/10/10 06:19:45;;;;;;;9.98;6.13;;;;;;;13.24;46.03;102470.31;5053211;28;20033;-58
2021/10/10 06:22:11;;;;;;;10.30;6.10;;;;;;;13.26;45.77;102468.38;5053415;28;20119;-57
2021/10/10 06:24:37;;;;;;;8.07;5.30;;;;;;;13.23;46.51;102463.22;5035450;28;20029;-57
2021/10/10 06:27:03;;;;;;;11.38;5.88;;;;;;;13.28;45.50;102471.84;5052978;28;20393;-57
2021/10/10 06:29:28;;;;;;;9.93;6.22;;;;;;;13.31;45.08;102465.38;5053010;28;20021;-58
2021/10/10 06:31:53;;;;;;;10.15;6.00;;;;;;;13.35;45.07;102475.81;5035471;28;20036;-57
2021/10/10 06:34:19;;;;;;;10.40;5.93;;;;;;;13.40;46.24;102470.09;5053251;28;20036;-58
2021/10/10 06:36:44;;;;;;;10.10;5.90;;;;;;;13.46;45.49;102467.00;5052862;28;20036;-57
2021/10/10 06:39:09;;;;;;;16.70;7.93;;;;;;;13.54;46.34;102479.94;5053468;28;20025;-58
2021/10/10 06:41:35;;;;;;;12.50;6.43;;;;;;;13.63;45.99;102481.97;5053520;28;20032;-57
2021/10/10 06:44:00;;;;;;;9.55;6.85;;;;;;;13.69;45.77;102476.16;5052947;28;20485;-57
2021/10/10 06:46:26;;;;;;;14.65;7.15;;;;;;;13.78;46.26;102491.66;5053152;28;20037;-57
2021/10/10 06:48:51;;;;;;;13.85;7.47;;;;;;;13.85;45.73;102482.16;5052553;28;20035;-57
2021/10/10 06:51:17;;;;;;;10.88;6.82;;;;;;;13.96;44.90;102485.81;5052634;28;20068;-57
2021/10/10 06:53:42;;;;;;;14.68;7.43;;;;;;;14.10;45.04;102495.59;5053169;28;20495;-57
2021/10/10 06:56:07;;;;;;;12.07;6.85;;;;;;;14.26;44.83;102493.53;5051909;28;20029;-57
2021/10/10 06:58:33;;;;;;;11.82;6.97;;;;;;;14.35;45.78;102492.84;5052752;28;20116;-57
2021/10/10 07:00:59;;;;;;;15.73;7.68;;;;;;;14.49;45.67;102495.41;5053067;28;20036;-57
2021/10/10 07:03:24;;;;;;;15.68;8.32;;;;;;;14.61;45.03;102493.63;5053175;28;20024;-57
2021/10/10 07:05:49;;;;;;;15.73;8.32;;;;;;;14.67;44.78;102489.63;5035842;28;20079;-58
2021/10/10 07:08:15;;;;;;;15.00;8.07;;;;;;;14.68;45.93;102480.56;5053296;28;20451;-58
2021/10/10 07:10:40;;;;;;;15.93;8.05;;;;;;;14.69;45.40;102474.16;5053599;28;20131;-58
2021/10/10 07:13:06;;;;;;;14.45;8.73;;;;;;;14.81;45.97;102478.66;5053430;28;20037;-58
2021/10/10 07:15:33;;;;;;;14.43;8.00;;;;;;;14.87;45.68;102488.97;5053217;28;20028;-58
2021/10/10 07:18:07;;;;;;;14.95;8.10;;;;;;;14.97;45.99;102476.50;5052829;28;20025;-58
2021/10/10 07:25:58;;;;;;;20.30;8.90;;;;;;;15.36;45.38;102476.13;5053031;28;20037;-58
2021/10/10 07:28:23;;;;;;;15.75;8.43;;;;;;;15.52;45.42;102489.34;5034632;28;20471;-58
2021/10/10 07:30:49;;;;;;;15.98;7.93;;;;;;;15.63;45.99;102484.78;5053037;28;20100;-59
2021/10/10 07:33:15;;;;;;;18.63;8.35;;;;;;;15.80;46.14;102491.56;5052745;28;20075;-58
2021/10/10 07:35:40;;;;;;;16.63;7.85;;;;;;;15.96;45.89;102491.19;5052671;28;20044;-58
2021/10/10 07:38:06;;;;;;;19.15;8.13;;;;;;;16.15;45.03;102486.88;5052792;28;20029;-58
2021/10/10 07:40:31;;;;;;;15.20;8.63;;;;;;;16.36;44.63;102475.31;5052814;28;20037;-59
2021/10/10 07:42:57;;;;;;;14.95;8.48;;;;;;;16.67;45.25;102478.06;5053097;28;20025;-59
2021/10/10 07:45:24;;;;;;;15.63;8.30;;;;;;;16.95;45.31;102486.56;5035037;28;20385;-58
2021/10/10 07:47:50;;;;;;;16.30;8.75;;;;;;;17.20;44.48;102475.34;5053089;28;20447;-59
2021/10/10 07:50:19;;;;;;;15.63;7.85;;;;;;;17.41;44.13;102474.38;5052803;28;20017;-58
2021/10/10 07:52:45;;;;;;;18.50;8.65;;;;;;;17.71;44.51;102481.72;5052546;28;20498;-59
2021/10/10 07:55:11;;;;;;;18.90;8.77;;;;;;;18.02;43.57;102474.44;5052777;28;20553;-58
2021/10/10 07:57:38;;;;;;;19.17;9.27;;;;;;;18.29;43.71;102458.38;5052687;28;20025;-59
2021/10/10 08:00:05;;;;;;;19.40;9.50;;;;;;;18.54;44.07;102454.31;5034848;28;20477;-59
2021/10/10 08:02:31;;;;;;;18.48;10.68;;;;;;;18.80;43.96;102451.91;5053606;28;20029;-58
2021/10/10 08:04:57;;;;;;;16.90;8.55;;;;;;;19.03;43.49;102448.75;5053655;28;20103;-59
2021/10/10 08:07:22;;;;;;;17.50;9.15;;;;;;;19.26;43.00;102446.59;5036869;28;20426;-58
2021/10/10 08:09:48;;;;;;;17.15;9.30;;;;;;;19.51;43.64;102445.97;5057024;28;20096;-58
2021/10/10 08:12:13;;;;;;;20.42;9.45;;;;;;;19.75;43.23;102459.06;5056707;28;20032;-59
2021/10/10 08:14:39;;;;;;;16.65;8.85;;;;;;;19.97;43.35;102450.50;5057080;28;20028;-59
2021/10/10 08:17:04;;;;;;;17.23;9.18;;;;;;;20.17;43.13;102457.56;5056598;28;20442;-59
2021/10/10 08:19:29;;;;;;;14.75;8.95;;;;;;;20.39;42.58;102459.03;5056605;28;20021;-59
2021/10/10 08:21:55;;;;;;;17.38;8.57;;;;;;;20.60;43.10;102456.03;5056618;28;20029;-60
2021/10/10 08:24:22;;;;;;;17.23;8.57;;;;;;;20.83;42.58;102468.16;5055999;28;20063;-59
2021/10/10 08:26:47;;;;;;;20.55;8.63;;;;;;;21.07;43.09;102465.72;5056094;28;20020;-59
2021/10/10 08:29:14;;;;;;;20.40;9.20;;;;;;;21.24;42.09;102456.66;5055751;28;20530;-59
2021/10/10 08:31:39;;;;;;;22.23;8.98;;;;;;;21.38;42.18;102453.31;5055666;28;20021;-59
2021/10/10 08:34:05;;;;;;;21.73;8.52;;;;;;;21.63;42.35;102448.03;5054089;28;20385;-59
2021/10/10 08:36:30;;;;;;;19.20;8.20;;;;;;;21.85;42.30;102450.22;5055276;28;20020;-59
2021/10/10 08:38:55;;;;;;;15.10;8.63;;;;;;;22.08;41.64;102440.47;5055193;28;20031;-59
2021/10/10 08:41:24;;;;;;;16.70;8.50;;;;;;;22.34;41.63;102441.22;5054765;28;20064;-59
2021/10/10 08:43:50;;;;;;;14.57;8.43;;;;;;;22.66;41.65;102442.34;5055004;28;20021;-60
2021/10/10 08:46:24;;;;;;;22.70;9.20;;;;;;;22.93;41.07;102448.34;5054583;28;20025;-59
2021/10/10 08:48:52;;;;;;;18.80;8.15;;;;;;;23.21;41.57;102440.66;5054918;28;20512;-59
2021/10/10 08:51:21;;;;;;;23.05;9.02;;;;;;;23.46;41.19;102450.56;5036602;28;20466;-59
2021/10/10 08:53:47;;;;;;;16.40;8.00;;;;;;;23.64;40.19;102447.63;5054337;28;20025;-59
2021/10/10 08:56:13;;;;;;;14.82;7.63;;;;;;;23.94;40.82;102456.94;5054307;28;20032;-59
2021/10/10 08:58:41;;;;;;;17.40;8.88;;;;;;;24.19;39.68;102453.94;5054133;28;20025;-59
2021/10/10 09:01:15;;;;;;;17.63;8.63;;;;;;;24.40;40.28;102445.09;5054177;28;20032;-60
2021/10/10 09:03:45;;;;;;;16.52;7.60;;;;;;;24.52;40.08;102446.38;5037444;28;20028;-59
2021/10/10 09:06:11;;;;;;;12.80;7.13;;;;;;;24.65;39.29;102452.13;5054366;28;20505;-60
2021/10/10 09:08:36;;;;;;;15.63;7.95;;;;;;;24.73;39.71;102457.56;5054011;28;20025;-60
2021/10/10 09:11:02;;;;;;;15.25;7.53;;;;;;;24.89;39.17;102457.47;5054082;28;20384;-59
2021/10/10 09:13:36;;;;;;;10.90;6.97;;;;;;;25.08;38.98;102460.75;5053899;28;20029;-60
2021/10/10 09:16:04;;;;;;;14.38;8.27;;;;;;;25.22;39.12;102466.28;5053904;28;20029;-59
2021/10/10 09:18:39;;;;;;;15.55;8.52;;;;;;;25.43;38.66;102460.09;5053099;28;20114;-59
2021/10/10 09:21:19;;;;;;;14.93;7.50;;;;;;;25.85;37.82;102459.50;5035964;28;20024;-60
2021/10/10 09:23:47;;;;;;;15.90;8.55;;;;;;;26.49;37.24;102458.63;5035918;28;20085;-59
2021/10/10 09:26:12;;;;;;;13.00;7.65;;;;;;;26.19;37.21;102461.66;5053977;28;20025;-59
2021/10/10 09:28:39;;;;;;;14.60;7.63;;;;;;;25.99;37.72;102456.72;5053607;28;20060;-59
2021/10/10 09:31:07;;;;;;;15.20;7.22;;;;;;;25.82;37.70;102459.88;5053582;28;20028;-59
2021/10/10 09:33:46;;;;;;;13.27;7.15;;;;;;;25.95;37.77;102455.41;5053546;28;20078;-60
2021/10/10 09:36:36;;;;;;;14.48;7.97;;;;;;;26.26;37.40;102457.09;5053684;28;20379;-60
2021/10/10 09:39:06;;;;;;;13.40;7.45;;;;;;;26.58;36.54;102473.97;5052550;28;20037;-59
2021/10/10 09:41:39;;;;;;;13.47;7.67;;;;;;;26.88;36.49;102477.53;5053835;28;20111;-60
2021/10/10 09:44:12;;;;;;;18.00;8.85;;;;;;;27.30;36.04;102473.03;5053307;28;20027;-60
2021/10/10 09:46:41;;;;;;;16.20;8.02;;;;;;;27.65;36.24;102472.06;5053371;28;20025;-60
2021/10/10 09:49:38;;;;;;;17.85;8.90;;;;;;;28.20;35.95;102483.00;5053614;28;20100;-57
2021/10/10 09:52:07;;;;;;;15.43;9.13;;;;;;;28.77;34.35;102484.53;4998368;28;20159;-58
2021/10/10 09:54:49;;;;;;;20.05;8.80;;;;;;;29.11;34.08;102480.75;5053213;28;20024;-58
2021/10/10 09:57:14;;;;;;;14.20;9.15;;;;;;;29.00;34.86;102473.97;5035482;28;20028;-57
2021/10/10 09:59:39;;;;;;;19.40;9.02;;;;;;;29.39;34.48;102471.25;5052266;28;20496;-58
2021/10/10 10:02:05;;;;;;;14.32;8.40;;;;;;;29.77;33.63;102476.06;5053113;28;20013;-58
2021/10/10 10:04:48;;;;;;;15.45;9.00;;;;;;;30.24;33.20;102461.06;5052856;28;20063;-58
2021/10/10 10:07:19;;;;;;;20.85;10.70;;;;;;;30.62;32.57;102472.19;5018719;28;20025;-58
2021/10/10 10:09:52;;;;;;;22.75;10.82;;;;;;;30.78;33.04;102466.13;5053055;28;20085;-58
2021/10/10 10:12:22;;;;;;;18.13;10.60;;;;;;;30.96;32.69;102471.78;5053072;28;20028;-58
2021/10/10 10:14:53;;;;;;;22.85;11.07;;;;;;;31.25;32.55;102465.59;5053111;28;20024;-57
2021/10/10 10:17:25;;;;;;;22.70;11.95;;;;;;;31.49;32.31;102445.34;5053009;28;20047;-58
2021/10/10 10:19:51;;;;;;;22.40;11.43;;;;;;;31.82;32.37;102449.72;5035428;28;20104;-58
2021/10/10 10:22:17;;;;;;;17.95;10.85;;;;;;;31.95;31.57;102450.41;5052819;28;20025;-57
2021/10/10 10:24:45;;;;;;;18.75;11.55;;;;;;;32.15;31.10;102452.97;5052774;28;20029;-58
2021/10/10 10:27:12;;;;;;;23.75;12.18;;;;;;;32.19;31.38;102446.72;5052666;28;20029;-58
2021/10/10 10:29:38;;;;;;;19.27;12.27;;;;;;;32.10;31.62;102442.59;5052627;28;20029;-58
2021/10/10 10:32:06;;;;;;;19.85;12.57;;;;;;;31.93;31.96;102449.78;5052648;28;20103;-58
2021/10/10 10:34:33;;;;;;;25.23;12.95;;;;;;;31.48;31.96;102443.66;5034861;28;20480;-58
2021/10/10 10:37:00;;;;;;;27.00;13.13;;;;;;;31.02;32.32;102437.66;5052864;28;20020;-58
2021/10/10 10:39:43;;;;;;;22.92;13.45;;;;;;;30.72;32.30;102439.34;5034883;28;20079;-57
2021/10/10 10:42:13;;;;;;;28.85;13.95;;;;;;;30.39;32.89;102432.09;5052600;28;20075;-58
2021/10/10 10:44:40;;;;;;;25.80;13.18;;;;;;;30.18;32.70;102429.59;5034727;28;20032;-59
2021/10/10 10:47:14;;;;;;;22.60;12.90;;;;;;;30.00;32.51;102443.28;5052415;28;20025;-57
2021/10/10 10:50:06;;;;;;;29.42;15.35;;;;;;;30.10;32.25;102434.53;5052597;28;20036;-58
2021/10/10 10:52:36;;;;;;;22.92;12.80;;;;;;;30.31;31.81;102429.56;5051884;28;20117;-58
2021/10/10 10:55:30;;;;;;;26.50;15.77;;;;;;;29.91;32.44;102430.78;5052740;28;20108;-58
2021/10/10 10:57:58;;;;;;;25.27;13.75;;;;;;;29.35;33.37;102428.53;5052341;28;20020;-58
2021/10/10 11:00:25;;;;;;;22.42;12.57;;;;;;;28.99;33.31;102424.47;5052490;28;20056;-57
2021/10/10 11:02:53;;;;;;;22.58;12.80;;;;;;;28.96;32.55;102416.63;5034547;28;20040;-57
2021/10/10 11:05:28;;;;;;;26.48;14.13;;;;;;;29.21;32.99;102417.69;5052423;28;20079;-57
2021/10/10 11:07:54;;;;;;;25.58;13.13;;;;;;;29.94;32.43;102416.53;5052437;28;20033;-58
2021/10/10 11:10:19;;;;;;;25.15;14.43;;;;;;;30.24;31.92;102403.84;5052294;28;20374;-58
2021/10/10 11:12:54;;;;;;;26.42;14.30;;;;;;;30.14;31.93;102405.38;5052080;28;20041;-58
2021/10/10 11:15:19;;;;;;;24.90;13.07;;;;;;;30.71;31.20;102396.16;5034203;28;20028;-58
2021/10/10 11:17:54;;;;;;;21.75;13.75;;;;;;;30.92;31.60;102395.75;5052193;28;20453;-58
2021/10/10 11:20:19;;;;;;;27.17;14.90;;;;;;;30.44;31.59;102399.06;5052034;28;20032;-57
2021/10/10 11:22:45;;;;;;;23.52;14.00;;;;;;;30.42;31.55;102404.00;5052150;28;20261;-58